Time;durP1;ratioP1;P1;durP2;ratioP2;P2;SDS_P1;SDS_P2;PMS_P1;PMS_P2;Temp;Humidity;BMP_temperature;BMP_pressure;BME280_temperature;BME280_humidity;BME280_pressure;Samples;Min_cycle;Max_cycle;Signal;HPM_P1;HPM_P2
2024/04/15 00:01:50;;;;;;;5.77;5.00;;;;;;;;;;5532469;26;20216;-91
2024/04/15 00:04:16;;;;;;;13.70;8.50;;;;;;;;;;5527254;26;20232;-91
2024/04/15 00:06:47;;;;;;;7.83;6.80;;;;;;;;;;5526274;26;20725;-91
2024/04/15 00:09:13;;;;;;;10.53;4.07;;;;;;;;;;5491281;26;20331;-91
2024/04/15 00:11:41;;;;;;;4.83;3.83;;;;;;;;;;5495004;26;20224;-91
2024/04/15 00:14:07;;;;;;;3.23;2.93;;;;;;;;;;5492301;26;20221;-91
2024/04/15 00:16:36;;;;;;;6.93;3.87;;;;;;;;;;5493604;26;20613;-91
2024/04/15 00:19:02;;;;;;;3.50;3.20;;;;;;;;;;5491084;26;20555;-91
2024/04/15 00:21:30;;;;;;;11.10;7.20;;;;;;;;;;5508611;26;20262;-91
2024/04/15 00:23:59;;;;;;;37.23;25.73;;;;;;;;;;5528222;26;20227;-90
2024/04/15 00:26:27;;;;;;;42.73;27.27;;;;;;;;;;5529937;26;20337;-90
2024/04/15 00:28:53;;;;;;;42.57;26.10;;;;;;;;;;5518285;26;20233;-90
2024/04/15 00:31:21;;;;;;;19.77;12.23;;;;;;;;;;5523811;26;20278;-91
2024/04/15 00:33:47;;;;;;;13.13;9.20;;;;;;;;;;5528632;26;20538;-90
2024/04/15 00:36:15;;;;;;;16.80;12.07;;;;;;;;;;5531059;26;20254;-91
2024/04/15 00:38:41;;;;;;;15.23;10.93;;;;;;;;;;5528086;26;20256;-91
2024/04/15 00:41:12;;;;;;;11.17;8.33;;;;;;;;;;5507662;26;20227;-91
2024/04/15 00:43:38;;;;;;;7.67;6.03;;;;;;;;;;5528660;26;20218;-91
2024/04/15 00:46:06;;;;;;;17.10;11.07;;;;;;;;;;5529489;26;20262;-90
2024/04/15 00:48:32;;;;;;;15.47;10.90;;;;;;;;;;5526747;26;20262;-92
2024/04/15 00:51:01;;;;;;;12.73;10.13;;;;;;;;;;5530054;26;20235;-92
2024/04/15 00:53:27;;;;;;;14.87;12.10;;;;;;;;;;5511101;26;20372;-92
2024/04/15 00:55:56;;;;;;;9.77;8.00;;;;;;;;;;5528096;26;20717;-91
2024/04/15 00:58:25;;;;;;;12.87;8.87;;;;;;;;;;5491281;26;20233;-91
2024/04/15 01:00:55;;;;;;;5.80;5.20;;;;;;;;;;5494151;26;20220;-91
2024/04/15 01:03:21;;;;;;;7.83;3.33;;;;;;;;;;5520143;26;20235;-92
2024/04/15 01:05:50;;;;;;;4.00;3.70;;;;;;;;;;5530761;26;20262;-92
2024/04/15 01:08:17;;;;;;;138.10;95.10;;;;;;;;;;5528246;26;20218;-92
2024/04/15 01:10:45;;;;;;;82.17;57.60;;;;;;;;;;5531321;26;20213;-92
2024/04/15 01:13:11;;;;;;;204.47;130.17;;;;;;;;;;5526717;26;20229;-91
2024/04/15 01:15:42;;;;;;;13.57;9.97;;;;;;;;;;5530868;26;20677;-92
2024/04/15 01:18:08;;;;;;;5.03;4.03;;;;;;;;;;5528099;26;20218;-92
2024/04/15 01:20:37;;;;;;;4.27;3.07;;;;;;;;;;5522906;26;20265;-92
2024/04/15 01:23:04;;;;;;;8.00;3.67;;;;;;;;;;5490500;26;20276;-93
2024/04/15 01:25:35;;;;;;;3.90;3.60;;;;;;;;;;5493510;26;20310;-92
2024/04/15 01:28:01;;;;;;;4.53;3.37;;;;;;;;;;5489663;26;20232;-93
2024/04/15 01:30:30;;;;;;;3.70;3.30;;;;;;;;;;5516704;26;20278;-92
2024/04/15 01:32:56;;;;;;;3.53;3.27;;;;;;;;;;5504869;26;20269;-92
2024/04/15 01:35:24;;;;;;;4.73;3.70;;;;;;;;;;5530129;26;20219;-93
2024/04/15 01:37:50;;;;;;;3.53;3.23;;;;;;;;;;5527865;26;20217;-93
2024/04/15 01:40:18;;;;;;;3.53;2.70;;;;;;;;;;5508367;26;20302;-93
2024/04/15 01:42:47;;;;;;;3.70;3.20;;;;;;;;;;5527658;26;20226;-92
2024/04/15 01:45:15;;;;;;;9.07;6.97;;;;;;;;;;5525009;26;20227;-92
2024/04/15 01:47:44;;;;;;;25.70;17.43;;;;;;;;;;5489956;26;20714;-92
2024/04/15 01:50:13;;;;;;;404.13;276.70;;;;;;;;;;5493833;25;20236;-92
2024/04/15 01:52:39;;;;;;;136.53;89.80;;;;;;;;;;5530688;26;20548;-92
2024/04/15 01:55:08;;;;;;;24.70;15.80;;;;;;;;;;5533653;26;20254;-93
2024/04/15 01:57:34;;;;;;;10.23;8.10;;;;;;;;;;5509424;26;20268;-93
2024/04/15 02:00:05;;;;;;;126.43;72.00;;;;;;;;;;5495673;26;20230;-91
2024/04/15 02:02:31;;;;;;;173.07;99.87;;;;;;;;;;5493156;26;20221;-92
2024/04/15 02:04:59;;;;;;;18.23;10.40;;;;;;;;;;5501950;26;20288;-92
2024/04/15 02:07:25;;;;;;;6.30;4.17;;;;;;;;;;5530819;26;20221;-92
2024/04/15 02:09:54;;;;;;;7.37;4.23;;;;;;;;;;5515424;26;20230;-89
2024/04/15 02:12:19;;;;;;;4.40;4.00;;;;;;;;;;5515779;26;20293;-90
2024/04/15 02:14:48;;;;;;;8.90;5.97;;;;;;;;;;5533460;26;20217;-89
2024/04/15 02:17:17;;;;;;;5.03;3.97;;;;;;;;;;5529196;26;20262;-91
2024/04/15 02:19:45;;;;;;;5.87;4.47;;;;;;;;;;5506164;26;20665;-90
2024/04/15 02:22:11;;;;;;;3.63;3.33;;;;;;;;;;5524260;26;20269;-91
2024/04/15 02:24:39;;;;;;;4.33;3.93;;;;;;;;;;5533812;26;20218;-90
2024/04/15 02:27:05;;;;;;;5.83;3.87;;;;;;;;;;5530586;26;20254;-90
2024/04/15 02:29:34;;;;;;;3.13;2.80;;;;;;;;;;5533267;26;20558;-91
2024/04/15 02:31:59;;;;;;;4.30;3.40;;;;;;;;;;5530606;26;20253;-90
2024/04/15 02:34:31;;;;;;;3.97;3.67;;;;;;;;;;5518690;26;20234;-91
2024/04/15 02:36:56;;;;;;;3.90;3.50;;;;;;;;;;5510694;26;20230;-90
2024/04/15 02:39:25;;;;;;;3.97;3.57;;;;;;;;;;5495498;26;20234;-89
2024/04/15 02:41:51;;;;;;;21.00;17.07;;;;;;;;;;5524404;26;20243;-91
2024/04/15 02:44:19;;;;;;;7.43;5.77;;;;;;;;;;5532990;26;20221;-92
2024/04/15 02:46:45;;;;;;;4.90;4.07;;;;;;;;;;5528882;26;20283;-91
2024/04/15 02:49:14;;;;;;;25.03;22.37;;;;;;;;;;5531556;26;20696;-90
2024/04/15 02:51:42;;;;;;;9.47;8.47;;;;;;;;;;5518922;26;20230;-89
2024/04/15 02:54:10;;;;;;;22.03;19.63;;;;;;;;;;5514852;26;20251;-89
2024/04/15 02:56:37;;;;;;;8.63;6.03;;;;;;;;;;5497883;26;20281;-90
2024/04/15 02:59:05;;;;;;;4.87;4.37;;;;;;;;;;5532756;26;20218;-90
2024/04/15 03:01:31;;;;;;;10.70;9.70;;;;;;;;;;5496717;26;20560;-90
2024/04/15 03:03:59;;;;;;;18.60;16.90;;;;;;;;;;5499398;26;20274;-89
2024/04/15 03:06:25;;;;;;;19.50;17.47;;;;;;;;;;5530190;26;20215;-90
2024/04/15 03:08:56;;;;;;;13.43;12.23;;;;;;;;;;5533043;26;20712;-90
2024/04/15 03:11:22;;;;;;;6.63;6.03;;;;;;;;;;5520093;26;20233;-90
2024/04/15 03:13:52;;;;;;;7.67;4.47;;;;;;;;;;5495884;26;20225;-90
2024/04/15 03:16:17;;;;;;;5.10;3.60;;;;;;;;;;5493159;26;20226;-90
2024/04/15 03:18:48;;;;;;;8.07;4.30;;;;;;;;;;5515599;26;20574;-90
2024/04/15 03:21:14;;;;;;;5.10;4.57;;;;;;;;;;5530087;26;20218;-90
2024/04/15 03:23:42;;;;;;;6.47;4.17;;;;;;;;;;5531090;26;20606;-89
2024/04/15 03:26:10;;;;;;;4.27;3.93;;;;;;;;;;5529937;26;20311;-90
2024/04/15 03:28:39;;;;;;;6.00;4.10;;;;;;;;;;5532714;26;20214;-89
2024/04/15 03:31:05;;;;;;;7.47;4.03;;;;;;;;;;5520144;26;20226;-90
2024/04/15 03:33:34;;;;;;;4.00;3.70;;;;;;;;;;5496020;26;20293;-93
2024/04/15 03:36:00;;;;;;;5.83;3.70;;;;;;;;;;5491988;26;20233;-89
2024/04/15 03:38:28;;;;;;;4.00;3.70;;;;;;;;;;5510324;26;20278;-89
2024/04/15 03:40:57;;;;;;;6.63;3.60;;;;;;;;;;5533232;26;20233;-89
2024/04/15 03:43:29;;;;;;;3.93;3.63;;;;;;;;;;5534119;26;20224;-89
2024/04/15 03:45:54;;;;;;;3.77;3.47;;;;;;;;;;5529762;26;20215;-89
2024/04/15 03:48:23;;;;;;;4.63;3.80;;;;;;;;;;5527610;26;20233;-90
2024/04/15 03:50:51;;;;;;;4.63;4.13;;;;;;;;;;5492540;26;20553;-89
2024/04/15 03:53:20;;;;;;;4.33;3.80;;;;;;;;;;5495267;26;20249;-86
2024/04/15 03:55:51;;;;;;;7.63;7.03;;;;;;;;;;5502021;26;20226;-90
2024/04/15 03:58:19;;;;;;;5.27;4.77;;;;;;;;;;5504891;26;20788;-89
2024/04/15 04:00:48;;;;;;;4.07;3.73;;;;;;;;;;5527977;26;20267;-85
2024/04/15 04:03:17;;;;;;;3.93;3.60;;;;;;;;;;5532393;26;20243;-77
2024/04/15 04:05:43;;;;;;;4.43;3.37;;;;;;;;;;5527392;26;20219;-90
2024/04/15 04:08:11;;;;;;;4.50;4.10;;;;;;;;;;5527098;26;20309;-92
2024/04/15 04:10:37;;;;;;;4.87;3.83;;;;;;;;;;5491936;26;20263;-92
2024/04/15 04:13:06;;;;;;;4.67;4.27;;;;;;;;;;5491874;26;20214;-82
2024/04/15 04:15:36;;;;;;;3.77;3.47;;;;;;;;;;5490477;26;20708;-82
2024/04/15 04:18:08;;;;;;;3.97;3.67;;;;;;;;;;5495548;26;20263;-81
2024/04/15 04:20:33;;;;;;;4.27;3.87;;;;;;;;;;5527897;26;20246;-86
2024/04/15 04:23:02;;;;;;;4.07;3.77;;;;;;;;;;5529199;26;20231;-87
2024/04/15 04:25:28;;;;;;;6.40;3.83;;;;;;;;;;5528614;26;20663;-89
2024/04/15 04:27:56;;;;;;;5.13;4.23;;;;;;;;;;5535693;26;20288;-89
2024/04/15 04:30:22;;;;;;;5.60;5.07;;;;;;;;;;5528059;26;20250;-88
2024/04/15 04:32:50;;;;;;;4.03;3.73;;;;;;;;;;5529308;26;20232;-89
2024/04/15 04:35:19;;;;;;;3.47;3.17;;;;;;;;;;5528570;26;20221;-92
2024/04/15 04:37:47;;;;;;;6.33;4.03;;;;;;;;;;5529096;26;20300;-88
2024/04/15 04:40:13;;;;;;;5.47;3.70;;;;;;;;;;5527151;26;20274;-89
2024/04/15 04:42:44;;;;;;;5.00;4.47;;;;;;;;;;5530695;26;20259;-89
2024/04/15 04:45:11;;;;;;;5.03;4.17;;;;;;;;;;5526370;26;20295;-89
2024/04/15 04:47:40;;;;;;;4.30;3.90;;;;;;;;;;5529102;26;20228;-89
2024/04/15 04:50:06;;;;;;;9.37;4.03;;;;;;;;;;5501875;26;20230;-89
2024/04/15 04:52:37;;;;;;;6.77;4.10;;;;;;;;;;5494963;26;20257;-89
2024/04/15 04:55:03;;;;;;;4.13;3.83;;;;;;;;;;5491835;26;20219;-89
2024/04/15 04:57:31;;;;;;;4.07;3.53;;;;;;;;;;5499274;26;20690;-88
2024/04/15 04:59:57;;;;;;;5.90;4.27;;;;;;;;;;5526241;26;20228;-88
2024/04/15 05:02:26;;;;;;;6.20;4.20;;;;;;;;;;5529072;26;20271;-88
2024/04/15 05:04:52;;;;;;;4.13;3.83;;;;;;;;;;5527260;26;20266;-89
2024/04/15 05:07:20;;;;;;;6.00;4.90;;;;;;;;;;5504172;26;20232;-90
2024/04/15 05:09:48;;;;;;;4.20;3.90;;;;;;;;;;5497090;26;20264;-89
2024/04/15 05:12:17;;;;;;;4.30;3.93;;;;;;;;;;5494750;26;20229;-88
2024/04/15 05:14:47;;;;;;;5.10;4.30;;;;;;;;;;5525909;26;20232;-89
2024/04/15 05:17:16;;;;;;;4.37;3.70;;;;;;;;;;5504436;26;20234;-88
2024/04/15 05:19:42;;;;;;;6.50;4.20;;;;;;;;;;5506675;26;20232;-89
2024/04/15 05:22:11;;;;;;;4.33;3.67;;;;;;;;;;5503303;26;20267;-89
2024/04/15 05:24:36;;;;;;;3.73;3.40;;;;;;;;;;5513572;26;20233;-89
2024/04/15 05:27:08;;;;;;;5.97;3.97;;;;;;;;;;5517657;26;20261;-88
2024/04/15 05:29:33;;;;;;;4.70;4.10;;;;;;;;;;5529536;26;20270;-89
2024/04/15 05:32:02;;;;;;;5.57;4.00;;;;;;;;;;5502140;26;20229;-89
2024/04/15 05:34:27;;;;;;;6.60;4.43;;;;;;;;;;5493144;26;20240;-88
2024/04/15 05:36:56;;;;;;;5.30;4.63;;;;;;;;;;5527136;26;20261;-88
2024/04/15 05:39:22;;;;;;;4.60;4.07;;;;;;;;;;5529018;26;20699;-89
2024/04/15 05:41:50;;;;;;;6.13;4.50;;;;;;;;;;5512709;26;20265;-88
2024/04/15 05:44:18;;;;;;;8.53;4.60;;;;;;;;;;5508965;26;20227;-88
2024/04/15 05:46:50;;;;;;;6.60;4.57;;;;;;;;;;5502653;26;20269;-87
2024/04/15 05:49:16;;;;;;;5.77;4.70;;;;;;;;;;5507063;26;20231;-89
2024/04/15 05:51:46;;;;;;;4.97;4.20;;;;;;;;;;5519046;26;20229;-88
2024/04/15 05:54:11;;;;;;;8.13;4.03;;;;;;;;;;5508250;26;20231;-88
2024/04/15 05:56:40;;;;;;;5.00;4.60;;;;;;;;;;5495012;26;20271;-87
2024/04/15 05:59:06;;;;;;;8.70;4.23;;;;;;;;;;5509896;26;20238;-87
2024/04/15 06:01:37;;;;;;;14.43;4.63;;;;;;;;;;5501064;26;20786;-88
2024/04/15 06:04:03;;;;;;;12.50;4.53;;;;;;;;;;5527983;26;20227;-87
2024/04/15 06:06:31;;;;;;;6.53;4.07;;;;;;;;;;5506975;26;20556;-86
2024/04/15 06:08:57;;;;;;;7.13;4.17;;;;;;;;;;5528451;26;20353;-87
2024/04/15 06:11:25;;;;;;;13.07;4.07;;;;;;;;;;5498012;26;20233;-87
2024/04/15 06:13:51;;;;;;;12.10;5.70;;;;;;;;;;5527807;26;20271;-87
2024/04/15 06:16:20;;;;;;;8.47;4.17;;;;;;;;;;5508494;26;20270;-86
2024/04/15 06:18:48;;;;;;;9.60;4.10;;;;;;;;;;5524954;26;20258;-87
2024/04/15 06:21:20;;;;;;;6.43;3.90;;;;;;;;;;5509680;26;20758;-86
2024/04/15 06:23:48;;;;;;;7.53;3.87;;;;;;;;;;5506336;26;20240;-87
2024/04/15 06:26:14;;;;;;;8.63;4.90;;;;;;;;;;5511609;26;20232;-86
2024/04/15 06:28:42;;;;;;;4.30;3.90;;;;;;;;;;5519072;26;20235;-87
2024/04/15 06:31:09;;;;;;;4.83;3.50;;;;;;;;;;5505484;26;20228;-86
2024/04/15 06:33:38;;;;;;;3.60;3.30;;;;;;;;;;5509178;26;20339;-86
2024/04/15 06:36:06;;;;;;;9.23;4.03;;;;;;;;;;5513293;26;20613;-86
2024/04/15 06:38:35;;;;;;;4.17;3.83;;;;;;;;;;5525672;25;20773;-86
2024/04/15 06:41:00;;;;;;;4.23;3.40;;;;;;;;;;5491226;26;20711;-86
2024/04/15 06:43:30;;;;;;;5.30;3.83;;;;;;;;;;5493776;26;20275;-86
2024/04/15 06:45:56;;;;;;;3.37;3.17;;;;;;;;;;5490694;26;20281;-86
2024/04/15 06:48:24;;;;;;;4.77;3.90;;;;;;;;;;5526560;26;20327;-85
2024/04/15 06:50:50;;;;;;;5.83;3.87;;;;;;;;;;5518137;26;20276;-86
2024/04/15 06:53:21;;;;;;;3.57;3.27;;;;;;;;;;5524044;26;20257;-85
2024/04/15 06:55:47;;;;;;;6.60;3.70;;;;;;;;;;5506689;26;20568;-85
2024/04/15 06:58:15;;;;;;;4.57;3.70;;;;;;;;;;5514621;26;20233;-85
2024/04/15 07:00:41;;;;;;;4.03;3.63;;;;;;;;;;5512405;26;20228;-85
2024/04/15 07:03:10;;;;;;;3.93;3.57;;;;;;;;;;5494785;26;20225;-85
2024/04/15 07:05:38;;;;;;;5.47;3.43;;;;;;;;;;5490741;26;20296;-85
2024/04/15 07:08:06;;;;;;;4.83;4.10;;;;;;;;;;5501810;26;20231;-85
2024/04/15 07:10:37;;;;;;;4.50;3.43;;;;;;;;;;5509830;26;20229;-85
2024/04/15 07:13:03;;;;;;;4.60;4.20;;;;;;;;;;5490359;26;20333;-86
2024/04/15 07:15:32;;;;;;;5.93;3.60;;;;;;;;;;5492851;26;20221;-85
2024/04/15 07:17:57;;;;;;;4.00;3.57;;;;;;;;;;5505326;26;20224;-85
2024/04/15 07:20:26;;;;;;;6.50;4.23;;;;;;;;;;5502614;26;20237;-84
2024/04/15 07:22:52;;;;;;;4.00;3.60;;;;;;;;;;5503063;26;20263;-85
2024/04/15 07:25:21;;;;;;;5.37;3.70;;;;;;;;;;5501231;26;20225;-85
2024/04/15 07:27:50;;;;;;;4.80;3.80;;;;;;;;;;5499199;26;20224;-84
2024/04/15 07:30:18;;;;;;;4.47;3.23;;;;;;;;;;5529081;26;20595;-85
2024/04/15 07:32:45;;;;;;;5.13;3.70;;;;;;;;;;5527081;26;20275;-84
2024/04/15 07:35:14;;;;;;;6.20;3.80;;;;;;;;;;5499848;26;20712;-85
2024/04/15 07:37:40;;;;;;;5.83;4.00;;;;;;;;;;5490740;26;20229;-84
2024/04/15 07:40:09;;;;;;;6.43;4.10;;;;;;;;;;5524866;26;20559;-84
2024/04/15 07:42:36;;;;;;;4.77;4.27;;;;;;;;;;5507102;26;20260;-84
2024/04/15 07:45:07;;;;;;;4.03;3.57;;;;;;;;;;5492580;26;20342;-85
2024/04/15 07:47:33;;;;;;;4.57;4.17;;;;;;;;;;5490601;26;20234;-84
2024/04/15 07:50:02;;;;;;;4.53;3.17;;;;;;;;;;5519472;25;20279;-84
2024/04/15 07:52:28;;;;;;;5.20;4.03;;;;;;;;;;5513844;26;20227;-84
2024/04/15 07:54:56;;;;;;;4.90;3.53;;;;;;;;;;5505385;26;20274;-84
2024/04/15 07:57:22;;;;;;;5.40;4.00;;;;;;;;;;5526544;26;20236;-84
2024/04/15 07:59:50;;;;;;;6.03;4.03;;;;;;;;;;5503121;26;20347;-83
2024/04/15 08:02:19;;;;;;;6.33;3.70;;;;;;;;;;5502897;26;20320;-84
2024/04/15 08:04:49;;;;;;;7.20;3.50;;;;;;;;;;5527620;26;20287;-84
2024/04/15 08:07:15;;;;;;;5.23;3.77;;;;;;;;;;5527114;26;20275;-83
2024/04/15 08:09:43;;;;;;;5.00;4.30;;;;;;;;;;5528902;26;20243;-83
2024/04/15 08:12:11;;;;;;;5.93;3.83;;;;;;;;;;5524423;26;20239;-84
2024/04/15 08:14:39;;;;;;;3.87;3.53;;;;;;;;;;5492224;26;20280;-83
2024/04/15 08:17:05;;;;;;;5.27;3.77;;;;;;;;;;5513458;26;20223;-84
2024/04/15 08:19:38;;;;;;;5.40;4.20;;;;;;;;;;5523709;26;20660;-84
2024/04/15 08:22:04;;;;;;;10.30;4.90;;;;;;;;;;5493664;26;20233;-83
2024/04/15 08:24:32;;;;;;;5.03;3.50;;;;;;;;;;5528957;26;20227;-84
2024/04/15 08:26:58;;;;;;;4.00;3.70;;;;;;;;;;5496936;26;20577;-84
2024/04/15 08:29:27;;;;;;;6.40;3.57;;;;;;;;;;5492220;26;20229;-84
2024/04/15 08:31:55;;;;;;;4.55;3.78;;;;;;;;;;5489206;26;20267;-83
2024/04/15 08:34:21;;;;;;;4.28;3.65;;;;;;;;;;5513881;26;20300;-84
2024/04/15 08:36:52;;;;;;;3.50;3.20;;;;;;;;;;5491984;26;20317;-83
2024/04/15 08:39:18;;;;;;;3.78;3.47;;;;;;;;;;5489586;26;20241;-84
2024/04/15 08:41:51;;;;;;;8.80;3.67;;;;;;;;;;5514135;26;20639;-83
2024/04/15 08:44:20;;;;;;;6.28;3.45;;;;;;;;;;5510047;26;20260;-83
2024/04/15 08:46:50;;;;;;;5.93;4.75;;;;;;;;;;5528287;26;20331;-83
2024/04/15 08:49:15;;;;;;;7.47;4.20;;;;;;;;;;5525925;26;20232;-83
2024/04/15 08:51:44;;;;;;;7.93;4.00;;;;;;;;;;5504382;26;20236;-83
2024/04/15 08:54:12;;;;;;;5.13;4.25;;;;;;;;;;5502141;26;20229;-83
2024/04/15 08:56:43;;;;;;;4.70;4.22;;;;;;;;;;5526585;26;20279;-83
2024/04/15 08:59:11;;;;;;;5.07;4.07;;;;;;;;;;5499714;26;20339;-83
2024/04/15 09:01:40;;;;;;;5.97;4.95;;;;;;;;;;5527110;25;20223;-83
2024/04/15 09:04:10;;;;;;;18.30;5.30;;;;;;;;;;5525450;26;20344;-82
2024/04/15 09:06:39;;;;;;;11.03;4.57;;;;;;;;;;5515161;26;20282;-83
2024/04/15 09:09:04;;;;;;;5.77;4.77;;;;;;;;;;5510046;26;20706;-83
2024/04/15 09:11:38;;;;;;;6.70;4.85;;;;;;;;;;5528484;26;20332;-83
2024/04/15 09:14:04;;;;;;;6.50;4.27;;;;;;;;;;5519663;26;20232;-83
2024/04/15 09:16:32;;;;;;;8.93;4.83;;;;;;;;;;5491705;26;20252;-83
2024/04/15 09:18:58;;;;;;;6.78;4.93;;;;;;;;;;5513649;26;20274;-83
2024/04/15 09:21:27;;;;;;;10.10;4.95;;;;;;;;;;5491289;26;20731;-83
2024/04/15 09:23:53;;;;;;;6.35;4.10;;;;;;;;;;5514096;26;20279;-83
2024/04/15 09:26:21;;;;;;;8.47;5.77;;;;;;;;;;5509313;26;20223;-83
2024/04/15 09:28:49;;;;;;;5.32;4.60;;;;;;;;;;5519520;26;20568;-83
2024/04/15 09:31:18;;;;;;;7.30;5.28;;;;;;;;;;5528180;26;20714;-83
2024/04/15 09:33:44;;;;;;;4.68;4.15;;;;;;;;;;5498925;26;20765;-83
2024/04/15 09:36:13;;;;;;;6.30;4.55;;;;;;;;;;5506332;26;20237;-83
2024/04/15 09:38:39;;;;;;;4.80;4.10;;;;;;;;;;5497636;26;20224;-83
2024/04/15 09:41:08;;;;;;;6.07;4.60;;;;;;;;;;5527752;26;20287;-83
2024/04/15 09:43:35;;;;;;;4.10;3.70;;;;;;;;;;5524954;26;20254;-83
2024/04/15 09:46:07;;;;;;;5.18;3.85;;;;;;;;;;5508039;26;20300;-83
2024/04/15 09:48:34;;;;;;;5.00;3.88;;;;;;;;;;5521003;26;20279;-84
2024/04/15 09:51:07;;;;;;;10.70;4.15;;;;;;;;;;5526082;26;20262;-83
2024/04/15 09:53:37;;;;;;;4.40;3.72;;;;;;;;;;5503517;26;20270;-83
2024/04/15 09:56:10;;;;;;;4.55;3.25;;;;;;;;;;5527421;26;20281;-83
2024/04/15 09:58:37;;;;;;;3.70;3.40;;;;;;;;;;5507241;26;20224;-83
2024/04/15 10:01:09;;;;;;;4.82;3.83;;;;;;;;;;5499292;26;20280;-83
2024/04/15 10:03:38;;;;;;;5.10;3.60;;;;;;;;;;5505041;26;20690;-82
2024/04/15 10:06:07;;;;;;;4.25;3.08;;;;;;;;;;5526835;26;20267;-83
2024/04/15 10:08:33;;;;;;;5.28;3.20;;;;;;;;;;5524362;26;20714;-82
2024/04/15 10:11:01;;;;;;;3.22;2.88;;;;;;;;;;5526507;26;20312;-83
2024/04/15 10:13:27;;;;;;;5.13;3.35;;;;;;;;;;5509888;26;20225;-83
2024/04/15 10:16:01;;;;;;;4.32;3.55;;;;;;;;;;5500086;26;20770;-83
2024/04/15 10:18:31;;;;;;;3.33;3.03;;;;;;;;;;5511351;26;20236;-83
2024/04/15 10:21:00;;;;;;;3.35;3.05;;;;;;;;;;5527940;26;20276;-83
2024/04/15 10:23:30;;;;;;;3.40;3.10;;;;;;;;;;5528151;26;20299;-82
2024/04/15 10:25:56;;;;;;;5.60;3.70;;;;;;;;;;5514749;26;20626;-82
2024/04/15 10:28:24;;;;;;;5.03;2.97;;;;;;;;;;5518777;26;20266;-82
2024/04/15 10:30:50;;;;;;;4.13;2.90;;;;;;;;;;5527593;26;20236;-82
2024/04/15 10:33:19;;;;;;;3.53;3.10;;;;;;;;;;5530888;26;20316;-83
2024/04/15 10:35:51;;;;;;;3.95;3.17;;;;;;;;;;5527341;26;20365;-82
2024/04/15 10:38:20;;;;;;;4.05;3.05;;;;;;;;;;5504812;26;20283;-82
2024/04/15 10:40:47;;;;;;;6.07;3.15;;;;;;;;;;5490996;26;20292;-82
2024/04/15 10:43:16;;;;;;;2.78;2.38;;;;;;;;;;5521570;26;20231;-82
2024/04/15 10:45:42;;;;;;;3.80;2.53;;;;;;;;;;5504733;26;20275;-82
2024/04/15 10:48:11;;;;;;;2.45;2.22;;;;;;;;;;5501718;26;20240;-82
2024/04/15 10:50:37;;;;;;;2.85;2.47;;;;;;;;;;5490522;26;20233;-83
2024/04/15 10:53:08;;;;;;;4.60;2.72;;;;;;;;;;5521882;26;20327;-82
2024/04/15 10:55:34;;;;;;;3.10;2.80;;;;;;;;;;5527323;26;20279;-83
2024/04/15 10:58:03;;;;;;;3.20;2.85;;;;;;;;;;5498941;26;20799;-82
2024/04/15 11:00:29;;;;;;;4.07;3.05;;;;;;;;;;5491046;26;20712;-82
2024/04/15 11:02:58;;;;;;;2.40;2.20;;;;;;;;;;5501847;26;20224;-82
2024/04/15 11:05:24;;;;;;;5.93;2.72;;;;;;;;;;5510080;26;20992;-82
2024/04/15 11:07:53;;;;;;;2.72;2.53;;;;;;;;;;5516214;26;20337;-82
2024/04/15 11:10:22;;;;;;;5.97;2.47;;;;;;;;;;5512265;26;20232;-83
2024/04/15 11:12:54;;;;;;;2.50;2.30;;;;;;;;;;5512963;26;20232;-82
2024/04/15 11:15:21;;;;;;;10.05;2.78;;;;;;;;;;5526786;26;20738;-82
2024/04/15 11:17:49;;;;;;;4.90;2.97;;;;;;;;;;5518057;26;20774;-82
2024/04/15 11:20:15;;;;;;;6.03;3.17;;;;;;;;;;5510156;26;20303;-83
2024/04/15 11:22:44;;;;;;;3.75;3.05;;;;;;;;;;5523439;26;20229;-81
2024/04/15 11:25:10;;;;;;;2.58;2.38;;;;;;;;;;5514334;26;20231;-82
2024/04/15 11:27:44;;;;;;;2.90;2.70;;;;;;;;;;5520702;26;20236;-82
2024/04/15 11:30:12;;;;;;;3.85;2.35;;;;;;;;;;5513194;26;20228;-83
2024/04/15 11:32:41;;;;;;;5.78;2.55;;;;;;;;;;5492468;26;20611;-82
2024/04/15 11:35:09;;;;;;;3.35;2.55;;;;;;;;;;5514021;26;20291;-82
2024/04/15 11:37:38;;;;;;;2.65;2.42;;;;;;;;;;5529271;26;20615;-82
2024/04/15 11:40:05;;;;;;;7.35;2.50;;;;;;;;;;5526699;26;20239;-82
2024/04/15 11:42:33;;;;;;;6.70;2.90;;;;;;;;;;5512550;26;20233;-83
2024/04/15 11:45:04;;;;;;;2.90;2.60;;;;;;;;;;5495196;26;20292;-82
2024/04/15 11:47:33;;;;;;;4.93;2.63;;;;;;;;;;5529241;26;20270;-82
2024/04/15 11:50:00;;;;;;;3.08;2.83;;;;;;;;;;5526503;26;20365;-82
2024/04/15 11:52:29;;;;;;;3.25;2.65;;;;;;;;;;5516557;26;20333;-82
2024/04/15 11:54:55;;;;;;;6.55;2.80;;;;;;;;;;5522551;26;20236;-82
2024/04/15 11:57:23;;;;;;;2.70;2.50;;;;;;;;;;5529615;26;20236;-82
2024/04/15 11:59:49;;;;;;;4.03;2.75;;;;;;;;;;5512997;26;20273;-82
2024/04/15 12:02:21;;;;;;;5.20;3.05;;;;;;;;;;5510857;26;20297;-82
2024/04/15 12:04:47;;;;;;;4.13;2.75;;;;;;;;;;5497686;26;20232;-83
2024/04/15 12:07:16;;;;;;;2.80;2.60;;;;;;;;;;5529123;26;20239;-83
2024/04/15 12:09:41;;;;;;;3.80;2.78;;;;;;;;;;5495826;26;20274;-82
2024/04/15 12:12:10;;;;;;;4.50;2.35;;;;;;;;;;5528709;26;20236;-82
2024/04/15 12:14:36;;;;;;;4.63;2.50;;;;;;;;;;5526446;26;20339;-82
2024/04/15 12:17:05;;;;;;;3.67;2.53;;;;;;;;;;5503944;26;20233;-82
2024/04/15 12:19:36;;;;;;;2.78;2.50;;;;;;;;;;5511539;26;20233;-82
2024/04/15 12:22:02;;;;;;;3.50;2.97;;;;;;;;;;5497918;26;20229;-82
2024/04/15 12:24:31;;;;;;;3.38;3.05;;;;;;;;;;5513252;26;20225;-82
2024/04/15 12:26:57;;;;;;;4.60;2.67;;;;;;;;;;5489353;26;20313;-83
2024/04/15 12:29:25;;;;;;;5.25;3.05;;;;;;;;;;5506090;26;20228;-82
2024/04/15 12:31:51;;;;;;;6.75;3.40;;;;;;;;;;5524005;26;20236;-83
2024/04/15 12:34:19;;;;;;;2.92;2.72;;;;;;;;;;5508369;26;20278;-82
2024/04/15 12:36:48;;;;;;;4.45;3.42;;;;;;;;;;5524595;26;20319;-82
2024/04/15 12:39:16;;;;;;;4.57;2.47;;;;;;;;;;5528120;26;20291;-82
2024/04/15 12:41:43;;;;;;;5.28;3.53;;;;;;;;;;5497268;26;20280;-82
2024/04/15 12:44:11;;;;;;;2.90;2.60;;;;;;;;;;5510119;26;20228;-82
2024/04/15 12:46:37;;;;;;;3.28;2.55;;;;;;;;;;5525671;26;20795;-82
2024/04/15 12:49:09;;;;;;;7.13;3.00;;;;;;;;;;5528322;26;20236;-82
2024/04/15 12:51:35;;;;;;;3.28;2.75;;;;;;;;;;5519318;26;20766;-82
2024/04/15 12:54:07;;;;;;;5.82;3.05;;;;;;;;;;5506899;26;20241;-83
2024/04/15 12:56:33;;;;;;;12.07;2.97;;;;;;;;;;5512728;26;20320;-82
2024/04/15 12:59:01;;;;;;;4.10;2.63;;;;;;;;;;5491556;26;20224;-82
2024/04/15 13:01:27;;;;;;;4.88;2.55;;;;;;;;;;5513347;26;20229;-82
2024/04/15 13:03:55;;;;;;;4.55;2.83;;;;;;;;;;5513909;26;20235;-83
2024/04/15 13:06:21;;;;;;;2.70;2.50;;;;;;;;;;5525448;26;20236;-83
2024/04/15 13:08:51;;;;;;;2.83;2.55;;;;;;;;;;5506932;26;20283;-83
2024/04/15 13:11:19;;;;;;;2.50;2.30;;;;;;;;;;5523988;26;20266;-82
2024/04/15 13:13:47;;;;;;;3.13;2.35;;;;;;;;;;5509036;26;20264;-83
2024/04/15 13:16:13;;;;;;;4.15;2.70;;;;;;;;;;5488770;26;20229;-82
2024/04/15 13:18:41;;;;;;;3.03;2.72;;;;;;;;;;5514797;26;20300;-82
2024/04/15 13:21:09;;;;;;;5.90;2.47;;;;;;;;;;5516090;26;20237;-83
2024/04/15 13:23:38;;;;;;;2.83;2.40;;;;;;;;;;5516505;26;20239;-82
2024/04/15 13:26:04;;;;;;;2.78;2.50;;;;;;;;;;5509810;26;20340;-83
2024/04/15 13:28:35;;;;;;;3.55;2.65;;;;;;;;;;5517260;26;20231;-82
2024/04/15 13:31:02;;;;;;;2.58;2.30;;;;;;;;;;5505955;26;20335;-83
2024/04/15 13:33:32;;;;;;;2.85;2.65;;;;;;;;;;5527253;26;20292;-82
2024/04/15 13:35:58;;;;;;;3.35;2.28;;;;;;;;;;5507285;26;20253;-83
2024/04/15 13:38:27;;;;;;;3.13;2.75;;;;;;;;;;5495289;26;20563;-83
2024/04/15 13:40:52;;;;;;;2.67;2.47;;;;;;;;;;5512898;26;20249;-82
2024/04/15 13:43:21;;;;;;;2.80;2.28;;;;;;;;;;5496105;26;20227;-82
2024/04/15 13:45:50;;;;;;;2.55;2.33;;;;;;;;;;5524965;26;20271;-82
2024/04/15 13:48:18;;;;;;;4.70;2.88;;;;;;;;;;5523781;25;20735;-83
2024/04/15 13:50:45;;;;;;;3.85;2.88;;;;;;;;;;5508751;26;20232;-83
2024/04/15 13:53:13;;;;;;;2.90;2.70;;;;;;;;;;5531095;26;20722;-82
2024/04/15 13:55:39;;;;;;;3.72;2.85;;;;;;;;;;5508986;26;20237;-82
2024/04/15 13:58:07;;;;;;;4.78;3.30;;;;;;;;;;5517884;26;20235;-82
2024/04/15 14:00:33;;;;;;;3.72;2.92;;;;;;;;;;5528515;26;20687;-82
2024/04/15 14:03:04;;;;;;;3.13;2.90;;;;;;;;;;5514618;26;20232;-83
2024/04/15 14:05:30;;;;;;;3.63;2.55;;;;;;;;;;5510823;26;20344;-82
2024/04/15 14:07:59;;;;;;;3.90;3.60;;;;;;;;;;5502162;26;20266;-83
2024/04/15 14:10:25;;;;;;;4.57;3.05;;;;;;;;;;5528457;26;20296;-82
2024/04/15 14:12:53;;;;;;;5.68;3.08;;;;;;;;;;5530184;26;20564;-83
2024/04/15 14:15:19;;;;;;;3.78;2.80;;;;;;;;;;5527868;26;20722;-82
2024/04/15 14:17:48;;;;;;;3.38;3.03;;;;;;;;;;5514429;26;20232;-82
2024/04/15 14:20:16;;;;;;;2.92;2.70;;;;;;;;;;5503406;26;20237;-83
2024/04/15 14:22:45;;;;;;;4.25;3.55;;;;;;;;;;5493466;26;20237;-83
2024/04/15 14:25:12;;;;;;;4.00;3.10;;;;;;;;;;5518141;26;20228;-83
2024/04/15 14:27:40;;;;;;;5.28;2.90;;;;;;;;;;5529888;26;20274;-82
2024/04/15 14:30:09;;;;;;;5.07;3.38;;;;;;;;;;5525211;26;20228;-84
2024/04/15 14:32:37;;;;;;;3.22;2.92;;;;;;;;;;5506671;26;20271;-83
2024/04/15 14:35:03;;;;;;;6.47;2.47;;;;;;;;;;5504005;26;20288;-83
2024/04/15 14:37:38;;;;;;;3.67;3.10;;;;;;;;;;5530595;26;20335;-83
2024/04/15 14:40:05;;;;;;;4.25;3.13;;;;;;;;;;5524185;26;20584;-83
2024/04/15 14:42:34;;;;;;;3.70;3.08;;;;;;;;;;5512536;26;20232;-83
2024/04/15 14:44:59;;;;;;;3.55;3.25;;;;;;;;;;5519949;26;20300;-83